createdAt,value
2018-07-14T00:00:45.334Z,984.5
2018-07-14T00:01:46.570Z,984.5
2018-07-14T00:02:47.731Z,984.5
2018-07-14T00:03:49.317Z,984.4
2018-07-14T00:04:50.713Z,984.5
2018-07-14T00:05:53.126Z,984.5
2018-07-14T00:06:57.156Z,984.4
2018-07-14T00:07:58.334Z,984.4
2018-07-14T00:08:59.536Z,984.4
2018-07-14T00:10:00.795Z,984.4
2018-07-14T00:11:01.899Z,984.4
2018-07-14T00:12:04.158Z,984.4
2018-07-14T00:13:05.390Z,984.4
2018-07-14T00:14:06.598Z,984.4
2018-07-14T00:15:08.611Z,984.4
2018-07-14T00:16:09.781Z,984.4
2018-07-14T00:17:11.122Z,984.4
2018-07-14T00:18:12.333Z,984.4
2018-07-14T00:19:13.514Z,984.4
2018-07-14T00:20:14.735Z,984.4
2018-07-14T00:21:16.148Z,984.4
2018-07-14T00:22:17.597Z,984.4
2018-07-14T00:23:18.876Z,984.4
2018-07-14T00:24:20.098Z,984.4
2018-07-14T00:25:21.277Z,984.4
2018-07-14T00:26:22.731Z,984.4
2018-07-14T00:27:25.221Z,984.4
2018-07-14T00:28:27.521Z,984.4
2018-07-14T00:29:32.264Z,984.4
2018-07-14T00:30:33.735Z,984.3
2018-07-14T00:31:34.964Z,984.4
2018-07-14T00:32:39.938Z,984.4
2018-07-14T00:33:41.215Z,984.4
2018-07-14T00:34:42.382Z,984.2
2018-07-14T00:35:43.568Z,984.3
2018-07-14T00:36:44.816Z,984.3
2018-07-14T00:37:46.122Z,984.4
2018-07-14T00:38:47.332Z,984.4
2018-07-14T00:39:48.532Z,984.4
2018-07-14T00:40:49.746Z,984.4
2018-07-14T00:41:50.923Z,984.4
2018-07-14T00:42:52.303Z,984.4
2018-07-14T00:43:53.469Z,984.4
2018-07-14T00:44:57.057Z,984.4
2018-07-14T00:45:58.229Z,984.4
2018-07-14T00:46:59.548Z,984.5
2018-07-14T00:48:00.840Z,984.4
2018-07-14T00:49:02.075Z,984.5
2018-07-14T00:50:03.260Z,984.4
2018-07-14T00:51:04.436Z,984.4
2018-07-14T00:52:05.718Z,984.4
2018-07-14T00:53:07.005Z,984.4
2018-07-14T00:54:08.728Z,984.4
2018-07-14T00:55:09.924Z,984.4
2018-07-14T00:56:12.142Z,984.5
2018-07-14T00:57:13.337Z,984.4
2018-07-14T00:58:14.633Z,984.1
2018-07-14T00:59:15.854Z,984.3
2018-07-14T01:00:17.036Z,984.3
2018-07-14T01:01:18.246Z,984.3
2018-07-14T01:02:19.474Z,984.4
2018-07-14T01:03:20.689Z,984.3
2018-07-14T01:04:21.875Z,984.3
2018-07-14T01:05:23.051Z,984.3
2018-07-14T01:06:24.258Z,984.3
2018-07-14T01:07:25.506Z,984.3
2018-07-14T01:08:26.795Z,984.4
2018-07-14T01:09:27.966Z,984.4
2018-07-14T01:10:29.246Z,984.3
2018-07-14T01:11:30.427Z,984.3
2018-07-14T01:12:31.719Z,984.3
2018-07-14T01:13:32.980Z,984.4
2018-07-14T01:14:36.485Z,984.2
2018-07-14T01:15:37.670Z,984.4
2018-07-14T01:16:38.854Z,984.3
2018-07-14T01:17:40.106Z,984.3
2018-07-14T01:18:41.272Z,984.2
2018-07-14T01:19:42.491Z,984.3
2018-07-14T01:20:43.955Z,984.3
2018-07-14T01:21:47.291Z,984.3
2018-07-14T01:22:48.490Z,984.1
2018-07-14T01:23:49.890Z,984.3
2018-07-14T01:24:51.087Z,984.2
2018-07-14T01:25:52.272Z,984.3
2018-07-14T01:26:53.456Z,984.3
2018-07-14T01:27:54.631Z,984.3
2018-07-14T01:28:55.879Z,984.3
2018-07-14T01:29:57.064Z,984.2
2018-07-14T01:30:58.259Z,984.3
2018-07-14T01:31:59.435Z,984.4
2018-07-14T01:33:00.594Z,984.3
2018-07-14T01:34:03.955Z,984.3
2018-07-14T01:35:05.154Z,984.4
2018-07-14T01:36:06.364Z,984.3
2018-07-14T01:37:07.544Z,984.3
2018-07-14T01:38:08.719Z,984.4
2018-07-14T01:39:09.934Z,984.3
2018-07-14T01:40:11.090Z,984.4
2018-07-14T01:41:12.294Z,984.3
2018-07-14T01:42:13.478Z,984.3
2018-07-14T01:43:14.700Z,984.3
2018-07-14T01:44:16.222Z,984.3
2018-07-14T01:45:17.445Z,984.3
2018-07-14T01:46:18.624Z,984.3
2018-07-14T01:47:19.819Z,984.3
2018-07-14T01:48:21.640Z,984.3
2018-07-14T01:49:22.898Z,984.3
2018-07-14T01:50:24.083Z,984.3
2018-07-14T01:51:25.286Z,984.3
2018-07-14T01:52:26.470Z,984.3
2018-07-14T01:53:27.651Z,984.4
2018-07-14T01:54:29.041Z,984.3
2018-07-14T01:55:30.206Z,984.3
2018-07-14T01:56:31.378Z,984.4
2018-07-14T01:57:32.550Z,984.4
2018-07-14T01:58:33.724Z,984.3
2018-07-14T01:59:35.271Z,984.3
2018-07-14T02:00:36.467Z,984.4
2018-07-14T02:01:37.665Z,984.3
2018-07-14T02:02:38.881Z,984.3
2018-07-14T02:03:40.069Z,984.4
2018-07-14T02:04:41.309Z,984.4
2018-07-14T02:05:42.482Z,984.3
2018-07-14T02:06:43.678Z,984.3
2018-07-14T02:07:44.978Z,984.2
2018-07-14T02:08:46.166Z,984.3
2018-07-14T02:09:47.420Z,984.3
2018-07-14T02:10:48.609Z,984.4
2018-07-14T02:11:49.810Z,984.4
2018-07-14T02:12:51.002Z,984.3
2018-07-14T02:13:52.162Z,984.3
2018-07-14T02:14:54.391Z,984.4
2018-07-14T02:15:55.572Z,984.3
2018-07-14T02:16:56.738Z,984.4
2018-07-14T02:17:57.952Z,984.4
2018-07-14T02:18:59.143Z,984.3
2018-07-14T02:20:00.367Z,984.3
2018-07-14T02:21:01.604Z,984.3
2018-07-14T02:22:02.782Z,984.3
2018-07-14T02:23:04.650Z,984.3
2018-07-14T02:24:05.847Z,984.3
2018-07-14T02:25:07.865Z,984.3
2018-07-14T02:26:09.042Z,984.3
2018-07-14T02:27:10.457Z,984.3
2018-07-14T02:28:11.687Z,984.3
2018-07-14T02:29:12.885Z,984.3
2018-07-14T02:30:15.110Z,984.3
2018-07-14T02:31:16.359Z,984.3
2018-07-14T02:32:18.005Z,984.2
2018-07-14T02:33:19.203Z,984.3
2018-07-14T02:34:20.367Z,984.3
2018-07-14T02:35:21.549Z,984.3
2018-07-14T02:36:22.760Z,984.4
2018-07-14T02:37:23.933Z,984.3
2018-07-14T02:38:25.101Z,984.4
2018-07-14T02:39:26.326Z,984.4
2018-07-14T02:40:27.563Z,984.4
2018-07-14T02:41:28.792Z,984.4
2018-07-14T02:42:29.991Z,984.4
2018-07-14T02:43:31.176Z,984.4
2018-07-14T02:44:32.323Z,984.5
2018-07-14T02:45:33.512Z,984.5
2018-07-14T02:46:34.721Z,984.5
2018-07-14T02:47:36.931Z,984.5
2018-07-14T02:48:38.142Z,984.5
2018-07-14T02:49:39.291Z,984.5
2018-07-14T02:50:40.514Z,984.5
2018-07-14T02:51:41.777Z,984.2
2018-07-14T02:52:49.491Z,984.5
2018-07-14T02:53:53.165Z,984.5
2018-07-14T02:54:54.355Z,984.5
2018-07-14T02:55:55.881Z,984.5
2018-07-14T02:56:57.076Z,984.5
2018-07-14T02:57:58.243Z,984.5
2018-07-14T02:58:59.421Z,984.5
2018-07-14T03:00:00.683Z,984.5
2018-07-14T03:01:01.926Z,984.6
2018-07-14T03:02:03.103Z,984.6
2018-07-14T03:03:04.268Z,984.6
2018-07-14T03:04:05.455Z,984.5
2018-07-14T03:05:06.656Z,984.6
2018-07-14T03:06:07.896Z,984.6
2018-07-14T03:07:09.128Z,984.5
2018-07-14T03:08:10.392Z,984.6
2018-07-14T03:09:11.568Z,984.6
2018-07-14T03:10:12.739Z,984.6
2018-07-14T03:11:14.105Z,984.6
2018-07-14T03:12:15.319Z,984.6
2018-07-14T03:13:16.535Z,984.6
2018-07-14T03:14:17.717Z,984.6
2018-07-14T03:15:18.870Z,984.7
2018-07-14T03:16:21.282Z,984.7
2018-07-14T03:17:22.508Z,984.6
2018-07-14T03:18:23.688Z,984.6
2018-07-14T03:19:24.902Z,984.6
2018-07-14T03:20:26.061Z,984.6
2018-07-14T03:21:27.986Z,984.7
2018-07-14T03:22:29.354Z,984.7
2018-07-14T03:23:30.548Z,984.6
2018-07-14T03:24:31.742Z,984.7
2018-07-14T03:25:32.975Z,984.7
2018-07-14T03:26:34.244Z,984.7
2018-07-14T03:27:35.413Z,984.7
2018-07-14T03:28:36.627Z,984.7
2018-07-14T03:29:37.887Z,984.6
2018-07-14T03:30:39.064Z,984.6
2018-07-14T03:31:40.298Z,984.6
2018-07-14T03:32:41.499Z,984.6
2018-07-14T03:33:42.674Z,984.6
2018-07-14T03:34:43.884Z,984.5
2018-07-14T03:35:45.062Z,984.6
2018-07-14T03:36:47.003Z,984.6
2018-07-14T03:37:48.114Z,984.6
2018-07-14T03:38:49.323Z,984.6
2018-07-14T03:39:50.515Z,984.6
2018-07-14T03:40:51.780Z,984.6
2018-07-14T03:41:52.993Z,984.6
2018-07-14T03:42:54.174Z,984.6
2018-07-14T03:43:55.807Z,984.6
2018-07-14T03:44:57.013Z,984.6
2018-07-14T03:45:58.297Z,984.6
2018-07-14T03:46:59.516Z,984.7
2018-07-14T03:48:00.707Z,984.6
2018-07-14T03:49:01.921Z,984.6
2018-07-14T03:50:03.146Z,984.6
2018-07-14T03:51:04.480Z,984.6
2018-07-14T03:52:05.714Z,984.6
2018-07-14T03:53:06.931Z,984.7
2018-07-14T03:54:08.151Z,984.6
2018-07-14T03:55:09.332Z,984.6
2018-07-14T03:56:10.498Z,984.7
2018-07-14T03:57:12.128Z,984.6
2018-07-14T03:58:13.338Z,984.6
2018-07-14T03:59:14.518Z,984.6
2018-07-14T04:00:15.677Z,984.7
2018-07-14T04:01:16.882Z,984.7
2018-07-14T04:02:18.097Z,984.7
2018-07-14T04:03:19.815Z,984.8
2018-07-14T04:04:21.018Z,984.7
2018-07-14T04:05:22.175Z,984.7
2018-07-14T04:06:23.593Z,984.7
2018-07-14T04:07:24.855Z,984.7
2018-07-14T04:08:26.015Z,984.7
2018-07-14T04:09:27.235Z,984.7
2018-07-14T04:10:28.405Z,984.7
2018-07-14T04:11:29.731Z,984.7
2018-07-14T04:12:30.990Z,984.7
2018-07-14T04:13:32.163Z,984.7
2018-07-14T04:14:33.595Z,984.8
2018-07-14T04:15:34.752Z,984.7
2018-07-14T04:16:36.121Z,984.7
2018-07-14T04:17:37.311Z,984.7
2018-07-14T04:18:38.470Z,984.8
2018-07-14T04:19:39.714Z,984.7
2018-07-14T04:20:40.854Z,984.7
2018-07-14T04:21:42.064Z,984.7
2018-07-14T04:22:43.274Z,984.8
2018-07-14T04:23:44.451Z,984.8
2018-07-14T04:24:45.610Z,984.7
2018-07-14T04:25:46.864Z,984.8
2018-07-14T04:26:48.025Z,984.8
2018-07-14T04:27:49.564Z,984.7
2018-07-14T04:28:50.743Z,984.7
2018-07-14T04:29:51.925Z,984.8
2018-07-14T04:30:53.113Z,984.8
2018-07-14T04:31:54.327Z,984.8
2018-07-14T04:32:55.458Z,984.8
2018-07-14T04:33:56.678Z,984.6
2018-07-14T04:34:57.906Z,984.8
2018-07-14T04:35:59.096Z,984.8
2018-07-14T04:37:00.302Z,984.8
2018-07-14T04:38:01.504Z,984.7
2018-07-14T04:39:02.686Z,984.8
2018-07-14T04:40:03.885Z,984.8
2018-07-14T04:41:05.082Z,984.8
2018-07-14T04:42:06.271Z,984.8
2018-07-14T04:43:07.529Z,984.8
2018-07-14T04:44:08.712Z,984.8
2018-07-14T04:45:09.893Z,984.8
2018-07-14T04:46:11.053Z,984.8
2018-07-14T04:47:12.227Z,984.9
2018-07-14T04:48:13.452Z,984.8
2018-07-14T04:49:14.637Z,984.9
2018-07-14T04:50:15.818Z,984.9
2018-07-14T04:51:17.041Z,984.9
2018-07-14T04:52:20.279Z,984.9
2018-07-14T04:53:21.582Z,985
2018-07-14T04:54:22.767Z,984.9
2018-07-14T04:55:23.957Z,985
2018-07-14T04:56:25.322Z,984.9
2018-07-14T04:57:27.085Z,985
2018-07-14T04:58:28.591Z,984.9
2018-07-14T04:59:29.754Z,985
2018-07-14T05:00:33.360Z,984.8
2018-07-14T05:01:34.537Z,985
2018-07-14T05:02:35.718Z,984.9
2018-07-14T05:03:36.964Z,984.9
2018-07-14T05:04:38.127Z,984.9
2018-07-14T05:05:39.294Z,984.9
2018-07-14T05:06:40.458Z,984.9
2018-07-14T05:07:41.660Z,984.9
2018-07-14T05:08:42.867Z,984.8
2018-07-14T05:09:44.115Z,984.9
2018-07-14T05:10:45.330Z,985
2018-07-14T05:11:46.502Z,985
2018-07-14T05:12:47.846Z,985
2018-07-14T05:13:49.046Z,985
2018-07-14T05:14:50.692Z,985
2018-07-14T05:15:51.869Z,984.9
2018-07-14T05:16:53.084Z,984.8
2018-07-14T05:17:54.267Z,984.9
2018-07-14T05:18:55.527Z,985
2018-07-14T05:19:56.729Z,985
2018-07-14T05:20:58.002Z,985
2018-07-14T05:21:59.247Z,985
2018-07-14T05:23:00.446Z,985
2018-07-14T05:24:01.658Z,984.9
2018-07-14T05:25:02.858Z,984.9
2018-07-14T05:26:04.069Z,985
2018-07-14T05:27:05.239Z,984.9
2018-07-14T05:28:09.757Z,985
2018-07-14T05:29:11.314Z,985
2018-07-14T05:30:12.512Z,985
2018-07-14T05:31:13.756Z,985
2018-07-14T05:32:14.951Z,985
2018-07-14T05:33:16.122Z,985
2018-07-14T05:34:17.404Z,985
2018-07-14T05:35:18.605Z,985
2018-07-14T05:36:19.789Z,985.1
2018-07-14T05:37:20.969Z,985
2018-07-14T05:38:22.144Z,985.1
2018-07-14T05:39:23.419Z,985.1
2018-07-14T05:40:24.649Z,985
2018-07-14T05:41:25.818Z,985.1
2018-07-14T05:42:27.236Z,985.1
2018-07-14T05:43:28.434Z,985.1
2018-07-14T05:44:29.666Z,984.9
2018-07-14T05:45:30.842Z,985.1
2018-07-14T05:46:32.087Z,985.2
2018-07-14T05:47:33.351Z,985.2
2018-07-14T05:48:34.559Z,985.3
2018-07-14T05:49:35.786Z,985.2
2018-07-14T05:50:37.018Z,985.2
2018-07-14T05:51:39.050Z,985.3
2018-07-14T05:52:40.290Z,985.3
2018-07-14T05:53:41.629Z,985.4
2018-07-14T05:54:42.851Z,985.4
2018-07-14T05:55:44.003Z,985.4
2018-07-14T05:56:45.240Z,985.4
2018-07-14T05:57:46.491Z,985.5
2018-07-14T05:58:47.797Z,985.4
2018-07-14T05:59:49.010Z,985.5
2018-07-14T06:00:52.643Z,985.6
2018-07-14T06:01:53.815Z,985.6
2018-07-14T06:02:55.002Z,985.4
2018-07-14T06:03:56.170Z,985.6
2018-07-14T06:04:57.383Z,985.6
2018-07-14T06:05:58.695Z,985.4
2018-07-14T06:07:00.183Z,985.5
2018-07-14T06:08:01.355Z,985.6
2018-07-14T06:09:02.541Z,985.5
2018-07-14T06:10:03.838Z,985.4
2018-07-14T06:11:05.044Z,985.4
2018-07-14T06:12:06.278Z,985.5
2018-07-14T06:13:07.446Z,985.6
2018-07-14T06:14:08.642Z,985.6
2018-07-14T06:15:10.168Z,985.5
2018-07-14T06:16:11.401Z,985.6
2018-07-14T06:17:12.620Z,985.6
2018-07-14T06:18:13.807Z,985.6
2018-07-14T06:19:16.222Z,985.6
2018-07-14T06:20:17.519Z,985.7
2018-07-14T06:21:18.706Z,985.7
2018-07-14T06:22:19.924Z,985.6
2018-07-14T06:23:21.142Z,985.5
2018-07-14T06:24:22.555Z,985.6
2018-07-14T06:25:23.778Z,985.8
2018-07-14T06:26:25.001Z,985.8
2018-07-14T06:27:30.046Z,985.8
2018-07-14T06:28:31.533Z,985.7
2018-07-14T06:29:32.735Z,985.6
2018-07-14T06:30:33.992Z,985.7
2018-07-14T06:31:35.282Z,985.8
2018-07-14T06:32:36.499Z,985.8
2018-07-14T06:33:37.739Z,985.9
2018-07-14T06:34:40.973Z,985.9
2018-07-14T06:35:43.349Z,985.9
2018-07-14T06:36:44.528Z,986
2018-07-14T06:37:45.722Z,985.9
2018-07-14T06:38:47.002Z,986
2018-07-14T06:39:48.182Z,986
2018-07-14T06:40:49.405Z,986.1
2018-07-14T06:41:51.961Z,986.1
2018-07-14T06:42:53.538Z,986
2018-07-14T06:43:54.703Z,986.1
2018-07-14T06:44:55.884Z,986.1
2018-07-14T06:45:57.362Z,986.2
2018-07-14T06:47:02.675Z,986.1
2018-07-14T06:48:03.890Z,986.3
2018-07-14T06:49:07.203Z,986.4
2018-07-14T06:50:08.463Z,986.4
2018-07-14T06:51:09.687Z,986.4
2018-07-14T06:52:10.924Z,986.4
2018-07-14T06:53:12.236Z,986.4
2018-07-14T06:54:13.511Z,986.4
2018-07-14T06:55:14.734Z,986.4
2018-07-14T06:56:19.418Z,986.5
2018-07-14T06:57:20.631Z,986.2
2018-07-14T06:58:24.213Z,986.4
2018-07-14T06:59:25.443Z,986.2
2018-07-14T07:00:26.681Z,986
2018-07-14T07:01:28.569Z,985.9
2018-07-14T07:02:32.269Z,986.3
2018-07-14T07:03:33.469Z,986.4
2018-07-14T07:04:34.647Z,986.2
2018-07-14T07:05:35.939Z,986.3
2018-07-14T07:06:39.819Z,986.1
2018-07-14T07:07:40.969Z,985.9
2018-07-14T07:08:44.410Z,986
2018-07-14T07:09:45.653Z,986.1
2018-07-14T07:10:46.884Z,986.3
2018-07-14T07:11:48.159Z,986.5
2018-07-14T07:12:49.402Z,986.5
2018-07-14T07:13:50.678Z,985.8
2018-07-14T07:14:51.840Z,985.7
2018-07-14T07:15:53.020Z,986
2018-07-14T07:16:54.255Z,986.4
2018-07-14T07:17:55.507Z,986.6
2018-07-14T07:18:58.871Z,986.7
2018-07-14T07:20:01.209Z,986.9
2018-07-14T07:21:02.429Z,986
2018-07-14T07:22:06.167Z,985.9
2018-07-14T07:23:11.971Z,985.9
2018-07-14T07:24:13.174Z,987.3
2018-07-14T07:25:14.441Z,987.2
2018-07-14T07:26:15.688Z,986.2
2018-07-14T07:27:18.867Z,987
2018-07-14T07:28:22.892Z,986.1
2018-07-14T07:29:24.307Z,987.5
2018-07-14T07:30:26.831Z,986.6
2018-07-14T07:31:31.382Z,986.5
2018-07-14T07:32:32.625Z,987.3
2018-07-14T07:33:34.892Z,986.7
2018-07-14T07:34:36.242Z,986.5
2018-07-14T07:35:37.434Z,986.8
2018-07-14T07:36:41.075Z,986.6
2018-07-14T07:37:42.391Z,986.8
2018-07-14T07:38:43.621Z,986.7
2018-07-14T07:39:47.024Z,986.2
2018-07-14T07:40:51.365Z,985.8
2018-07-14T07:41:53.851Z,986
2018-07-14T07:42:58.260Z,986.7
2018-07-14T07:44:00.434Z,987.1
2018-07-14T07:45:03.829Z,985.7
2018-07-14T07:46:10.085Z,985.9
2018-07-14T07:47:11.661Z,985.5
2018-07-14T07:48:12.972Z,985.5
2018-07-14T07:49:15.374Z,986.4
2018-07-14T07:50:19.380Z,987.4
2018-07-14T07:51:20.559Z,986.3
2018-07-14T07:52:23.966Z,986.9
2018-07-14T07:53:26.255Z,985.8
2018-07-14T07:54:27.758Z,985.6
2018-07-14T07:55:29.103Z,987
2018-07-14T07:56:30.302Z,986.7
2018-07-14T07:57:36.235Z,985.5
2018-07-14T07:58:37.469Z,986.2
2018-07-14T07:59:38.670Z,985.7
2018-07-14T08:00:39.893Z,985.6
2018-07-14T08:01:41.124Z,985.5
2018-07-14T08:02:42.312Z,985.4
2018-07-14T08:03:43.620Z,987
2018-07-14T08:04:44.784Z,986.1
2018-07-14T08:05:46.296Z,987.1
2018-07-14T08:06:47.823Z,987.2
2018-07-14T08:07:49.065Z,987.2
2018-07-14T08:08:50.745Z,985.8
2018-07-14T08:09:51.964Z,985.4
2018-07-14T08:10:56.335Z,986.7
2018-07-14T08:11:57.618Z,986.9
2018-07-14T08:12:59.349Z,986
2018-07-14T08:14:00.663Z,986.1
2018-07-14T08:15:01.882Z,985.4
2018-07-14T08:16:03.067Z,985.5
2018-07-14T08:17:04.362Z,985.3
2018-07-14T08:18:05.779Z,985.1
2018-07-14T08:19:08.307Z,985.5
2018-07-14T08:20:09.551Z,985.7
2018-07-14T08:21:11.984Z,985.7
2018-07-14T08:22:15.973Z,985.8
2018-07-14T08:23:17.259Z,985.6
2018-07-14T08:24:18.831Z,987.7
2018-07-14T08:25:20.035Z,986.3
2018-07-14T08:26:21.250Z,986
2018-07-14T08:27:22.446Z,985.3
2018-07-14T08:28:31.064Z,985.2
2018-07-14T08:29:34.661Z,985.1
2018-07-14T08:30:35.918Z,985.6
2018-07-14T08:31:38.261Z,985.3
2018-07-14T08:32:39.607Z,985.3
2018-07-14T08:33:43.416Z,985.2
2018-07-14T08:34:44.965Z,985.1
2018-07-14T08:35:46.214Z,985.1
2018-07-14T08:36:48.666Z,985.8
2018-07-14T08:37:49.874Z,985.9
2018-07-14T08:38:51.110Z,985.2
2018-07-14T08:39:52.335Z,985.6
2018-07-14T08:40:53.599Z,986.7
2018-07-14T08:41:59.494Z,985.6
2018-07-14T08:43:00.852Z,985.6
2018-07-14T08:44:02.673Z,986.9
2018-07-14T08:45:04.387Z,985.7
2018-07-14T08:46:06.164Z,985.1
2018-07-14T08:47:07.327Z,984.9
2018-07-14T08:48:08.802Z,985.3
2018-07-14T08:49:11.233Z,985.3
2018-07-14T08:50:12.538Z,985.4
2018-07-14T08:51:16.165Z,985
2018-07-14T08:52:17.468Z,985.8
2018-07-14T08:53:20.855Z,985.1
2018-07-14T08:54:22.382Z,985.3
2018-07-14T08:55:24.117Z,986.3
2018-07-14T08:56:26.701Z,985.7
2018-07-14T08:57:29.134Z,986
2018-07-14T08:58:30.444Z,985.4
2018-07-14T08:59:33.150Z,985.3
2018-07-14T09:00:34.812Z,984.9
2018-07-14T09:01:36.343Z,985.2
2018-07-14T09:02:40.086Z,985.6
2018-07-14T09:03:43.545Z,985.1
2018-07-14T09:04:47.276Z,986.1
2018-07-14T09:05:48.924Z,985.5
2018-07-14T09:06:52.294Z,984.8
2018-07-14T09:07:53.551Z,984.6
2018-07-14T09:08:59.690Z,984.6
2018-07-14T09:10:07.749Z,985.2
2018-07-14T09:11:11.336Z,984.9
2018-07-14T09:12:15.688Z,985.8
2018-07-14T09:13:22.210Z,984.9
2018-07-14T09:14:23.413Z,984.7
2018-07-14T09:15:25.355Z,985
2018-07-14T09:16:26.683Z,984.9
2018-07-14T09:17:27.882Z,985.1
2018-07-14T09:18:29.141Z,985.1
2018-07-14T09:19:30.443Z,985
2018-07-14T09:20:31.676Z,984.7
2018-07-14T09:21:33.859Z,984.6
2018-07-14T09:22:35.682Z,985
2018-07-14T09:23:37.842Z,984.7
2018-07-14T09:24:42.553Z,984.5
2018-07-14T09:25:44.901Z,984.5
2018-07-14T09:26:49.186Z,984.6
2018-07-14T09:27:50.568Z,984.7
2018-07-14T09:28:53.421Z,984.8
2018-07-14T09:29:54.630Z,984.5
2018-07-14T09:31:10.452Z,984.8
2018-07-14T09:32:16.777Z,984.7
2018-07-14T09:33:21.464Z,985
2018-07-14T09:34:25.487Z,985
2018-07-14T09:35:26.686Z,984.8
2018-07-14T09:36:27.879Z,984.7
2018-07-14T09:37:32.379Z,984.7
2018-07-14T09:38:33.599Z,984.9
2018-07-14T09:39:34.825Z,984.9
2018-07-14T09:40:36.017Z,984.8
2018-07-14T09:41:37.296Z,985
2018-07-14T09:42:38.898Z,984.7
2018-07-14T09:43:40.302Z,984.7
2018-07-14T09:44:41.738Z,984.9
2018-07-14T09:45:43.153Z,984.9
2018-07-14T09:46:44.359Z,985
2018-07-14T09:47:45.789Z,985.5
2018-07-14T09:48:49.321Z,985.4
2018-07-14T09:50:00.619Z,984.8
2018-07-14T09:51:02.388Z,984.5
2018-07-14T09:52:11.487Z,985.2
2018-07-14T09:53:15.371Z,984.5
2018-07-14T09:54:16.820Z,984.7
2018-07-14T09:55:21.042Z,984.5
2018-07-14T09:56:22.265Z,984.3
2018-07-14T09:57:23.738Z,984.2
2018-07-14T09:58:31.235Z,984.3
2018-07-14T09:59:34.248Z,984.4
2018-07-14T10:00:35.485Z,984.6
2018-07-14T10:01:39.221Z,984.2
2018-07-14T10:02:40.708Z,984.6
2018-07-14T10:03:42.805Z,984.5
2018-07-14T10:04:44.252Z,984.3
2018-07-14T10:05:45.997Z,984.6
2018-07-14T10:08:03.983Z,984.6
2018-07-14T10:09:06.237Z,984.3
2018-07-14T10:10:08.879Z,984.2
2018-07-14T10:11:10.278Z,984.4
2018-07-14T10:12:11.842Z,984
2018-07-14T10:13:13.511Z,984.1
2018-07-14T10:14:14.727Z,984
2018-07-14T10:15:15.940Z,983.8
2018-07-14T10:16:18.734Z,983.7
2018-07-14T10:17:19.953Z,983.6
2018-07-14T10:18:21.123Z,983.9
2018-07-14T10:19:22.332Z,984
2018-07-14T10:20:23.642Z,983.8
2018-07-14T10:21:27.753Z,984
2018-07-14T10:22:31.527Z,984.1
2018-07-14T10:23:32.776Z,984.2
2018-07-14T10:24:34.274Z,984
2018-07-14T10:25:35.574Z,984.2
2018-07-14T10:26:36.667Z,984.2
2018-07-14T10:27:37.980Z,983.9
2018-07-14T10:28:39.293Z,983.9
2018-07-14T10:29:49.312Z,983.9
2018-07-14T10:30:51.906Z,983.8
2018-07-14T10:31:55.480Z,983.7
2018-07-14T10:32:56.910Z,983.7
2018-07-14T10:33:58.129Z,983.7
2018-07-14T10:34:59.548Z,983.5
2018-07-14T10:36:00.866Z,983.6
2018-07-14T10:37:03.889Z,983.6
2018-07-14T10:38:05.078Z,983.6
2018-07-14T10:39:07.949Z,983.4
2018-07-14T10:40:09.503Z,983.7
2018-07-14T10:41:15.976Z,984
2018-07-14T10:42:17.683Z,983.9
2018-07-14T10:43:18.906Z,983.7
2018-07-14T10:44:23.113Z,983.7
2018-07-14T10:45:24.356Z,983.6
2018-07-14T10:46:25.879Z,983.7
2018-07-14T10:47:27.094Z,983.7
2018-07-14T10:48:28.376Z,983.7
2018-07-14T10:49:29.720Z,983.5
2018-07-14T10:50:31.054Z,983.5
2018-07-14T10:51:32.607Z,983.5
2018-07-14T10:52:33.790Z,983.5
2018-07-14T10:53:35.108Z,983.4
2018-07-14T10:54:36.344Z,983.5
2018-07-14T10:55:37.594Z,983.4
2018-07-14T10:56:38.844Z,983.4
2018-07-14T10:57:40.274Z,983.2
2018-07-14T10:58:41.497Z,983.2
2018-07-14T10:59:42.760Z,983.3
2018-07-14T11:00:48.810Z,983.3
2018-07-14T11:01:50.035Z,983.3
2018-07-14T11:02:51.265Z,983.3
2018-07-14T11:03:52.515Z,983.2
2018-07-14T11:04:53.717Z,983.4
2018-07-14T11:05:55.034Z,983.3
2018-07-14T11:06:56.337Z,983.2
2018-07-14T11:07:57.588Z,983.2
2018-07-14T11:08:58.893Z,983.4
2018-07-14T11:10:01.183Z,983.3
2018-07-14T11:11:02.494Z,983.2
2018-07-14T11:12:03.779Z,983.3
2018-07-14T11:13:04.977Z,983.1
2018-07-14T11:14:08.298Z,983.2
2018-07-14T11:15:09.643Z,983.3
2018-07-14T11:16:12.069Z,983.2
2018-07-14T11:17:14.161Z,983.2
2018-07-14T11:18:18.499Z,983
2018-07-14T11:19:22.190Z,983
2018-07-14T11:20:23.446Z,983.2
2018-07-14T11:21:24.683Z,983.1
2018-07-14T11:22:25.886Z,983.1
2018-07-14T11:23:32.407Z,983
2018-07-14T11:24:36.068Z,983.1
2018-07-14T11:25:37.259Z,983.2
2018-07-14T11:26:38.555Z,983
2018-07-14T11:27:39.828Z,983.1
2018-07-14T11:28:40.999Z,983
2018-07-14T11:29:44.265Z,983.1
2018-07-14T11:30:45.715Z,983.1
2018-07-14T11:31:48.791Z,983
2018-07-14T11:33:04.257Z,983
2018-07-14T11:34:05.499Z,983.1
2018-07-14T11:35:08.968Z,983.2
2018-07-14T11:36:13.297Z,983.1
2018-07-14T11:37:14.537Z,983.1
2018-07-14T11:38:15.716Z,982.7
2018-07-14T11:39:19.683Z,983
2018-07-14T11:40:20.874Z,983
2018-07-14T11:41:23.296Z,983.1
2018-07-14T11:42:24.567Z,983.1
2018-07-14T11:43:25.975Z,983.1
2018-07-14T11:44:27.302Z,983.1
2018-07-14T11:45:28.479Z,982.9
2018-07-14T11:46:32.648Z,982.9
2018-07-14T11:47:34.006Z,982.9
2018-07-14T11:48:35.179Z,982.9
2018-07-14T11:49:36.482Z,982.9
2018-07-14T11:50:37.697Z,982.9
2018-07-14T11:51:39.081Z,983
2018-07-14T11:52:40.362Z,983.1
2018-07-14T11:53:41.589Z,983.1
2018-07-14T11:54:46.774Z,983
2018-07-14T11:55:48.255Z,983
2018-07-14T11:56:49.741Z,982.9
2018-07-14T11:57:51.251Z,982.9
2018-07-14T11:58:52.902Z,982.8
2018-07-14T11:59:54.530Z,982.8
2018-07-14T12:00:55.843Z,982.8
2018-07-14T12:02:01.754Z,982.8
2018-07-14T12:03:03.240Z,982.6
2018-07-14T12:04:04.418Z,982.7
2018-07-14T12:05:05.644Z,982.8
2018-07-14T12:06:09.603Z,982.8
2018-07-14T12:07:10.870Z,982.8
2018-07-14T12:08:12.243Z,982.7
2018-07-14T12:09:14.786Z,982.6
2018-07-14T12:10:16.314Z,982.6
2018-07-14T12:11:17.556Z,982.6
2018-07-14T12:12:18.774Z,982.5
2018-07-14T12:13:27.882Z,982.5
2018-07-14T12:14:29.447Z,982.4
2018-07-14T12:15:30.650Z,982.6
2018-07-14T12:16:36.534Z,982.5
2018-07-14T12:17:37.741Z,982.5
2018-07-14T12:18:40.423Z,982.5
2018-07-14T12:19:41.685Z,982.5
2018-07-14T12:20:42.927Z,982.5
2018-07-14T12:21:44.295Z,982.5
2018-07-14T12:22:45.609Z,982.5
2018-07-14T12:23:46.884Z,982.6
2018-07-14T12:24:48.305Z,982.5
2018-07-14T12:25:49.558Z,982.5
2018-07-14T12:26:50.834Z,982.6
2018-07-14T12:27:52.215Z,982.6
2018-07-14T12:28:53.434Z,982.5
2018-07-14T12:29:54.629Z,982.5
2018-07-14T12:30:55.847Z,982.5
2018-07-14T12:32:00.109Z,982.5
2018-07-14T12:33:01.618Z,982.6
2018-07-14T12:34:02.893Z,982.6
2018-07-14T12:35:04.092Z,982.5
2018-07-14T12:36:05.335Z,982.6
2018-07-14T12:37:06.519Z,982.5
2018-07-14T12:38:07.731Z,982.7
2018-07-14T12:39:09.356Z,982.4
2018-07-14T12:40:10.811Z,982.4
2018-07-14T12:41:12.039Z,982.5
2018-07-14T12:42:13.357Z,982.5
2018-07-14T12:43:14.620Z,982.5
2018-07-14T12:44:16.243Z,982.4
2018-07-14T12:45:17.619Z,982.4
2018-07-14T12:46:18.809Z,982.3
2018-07-14T12:47:20.188Z,982.2
2018-07-14T12:48:21.463Z,982.3
2018-07-14T12:49:25.177Z,982.4
2018-07-14T12:50:26.360Z,982.4
2018-07-14T12:51:27.573Z,982.3
2018-07-14T12:52:28.807Z,982.3
2018-07-14T12:53:34.929Z,982.2
2018-07-14T12:54:36.198Z,982.3
2018-07-14T12:55:37.355Z,982.3
2018-07-14T12:56:38.847Z,982.3
2018-07-14T12:57:43.149Z,982.3
2018-07-14T12:58:44.407Z,982.3
2018-07-14T12:59:45.754Z,982.3
2018-07-14T13:00:47.216Z,982.3
2018-07-14T13:01:48.434Z,982.2
2018-07-14T13:02:50.874Z,982.3
2018-07-14T13:03:52.349Z,982.2
2018-07-14T13:04:53.835Z,982.2
2018-07-14T13:05:55.029Z,982.2
2018-07-14T13:06:56.312Z,982.2
2018-07-14T13:07:57.823Z,982.2
2018-07-14T13:08:59.048Z,982.2
2018-07-14T13:10:00.327Z,982.2
2018-07-14T13:11:02.847Z,982.2
2018-07-14T13:12:07.039Z,982.2
2018-07-14T13:13:08.300Z,982.2
2018-07-14T13:14:09.699Z,982.2
2018-07-14T13:15:11.248Z,982.2
2018-07-14T13:16:12.514Z,982.2
2018-07-14T13:17:14.182Z,982
2018-07-14T13:18:15.336Z,982.2
2018-07-14T13:19:16.521Z,982.2
2018-07-14T13:20:20.259Z,982.1
2018-07-14T13:21:21.441Z,982.2
2018-07-14T13:22:22.864Z,982.2